EGTK/OXF METAR and TAF weather

Enter ICAO airport designator
Station Type Date Time Source
EGTK METAR 2020/09/18 19:20 UTC NOAA

EGTK 181920Z 05010KT CAVOK 15/08 Q1021


Station Type Date Time Source
EGTK Decoded METAR 2020/09/18 19:20 UTC NOAA

Station name not available
Sep 18, 2020 - 03:20 PM EDT / 2020.09.18 1920 UTC
Wind: from the NE (050 degrees) at 12 MPH (10 KT):0
Visibility: greater than 7 mile(s):0
Temperature: 59 F (15 C)
Dew Point: 46 F (8 C)
Relative Humidity: 62%
Pressure (altimeter): 30.15 in. Hg (1021 hPa)
ob: EGTK 181920Z 05010KT CAVOK 15/08 Q1021
cycle: 19

Station Type Date Time Source
EGTK TAF UTC NOAA

Error!

Example: see airport list